sensor_id;sensor_type;location;lat;lon;timestamp;pressure;altitude;pressure_sealevel;temperature;humidity
32109;BME280;18624;50.042;8.436;2024-03-29T00:00:42;98630.41;;;7.44;100.00
32109;BME280;18624;50.042;8.436;2024-03-29T00:03:09;98632.81;;;7.42;100.00
32109;BME280;18624;50.042;8.436;2024-03-29T00:05:34;98628.28;;;7.39;100.00
32109;BME280;18624;50.042;8.436;2024-03-29T00:08:01;98620.38;;;7.32;100.00
32109;BME280;18624;50.042;8.436;2024-03-29T00:10:26;98601.56;;;7.25;100.00
32109;BME280;18624;50.042;8.436;2024-03-29T00:12:52;98587.47;;;7.17;100.00
32109;BME280;18624;50.042;8.436;2024-03-29T00:15:17;98588.81;;;7.13;100.00
32109;BME280;18624;50.042;8.436;2024-03-29T00:17:43;98554.84;;;6.95;100.00
32109;BME280;18624;50.042;8.436;2024-03-29T00:20:09;98575.31;;;7.09;100.00
32109;BME280;18624;50.042;8.436;2024-03-29T00:22:34;98587.88;;;7.06;100.00
32109;BME280;18624;50.042;8.436;2024-03-29T00:25:00;98586.06;;;7.03;100.00
32109;BME280;18624;50.042;8.436;2024-03-29T00:27:26;98580.75;;;7.00;100.00
32109;BME280;18624;50.042;8.436;2024-03-29T00:29:54;98587.69;;;7.01;100.00
32109;BME280;18624;50.042;8.436;2024-03-29T00:32:20;98579.53;;;7.01;100.00
32109;BME280;18624;50.042;8.436;2024-03-29T00:34:45;98577.25;;;6.99;100.00
32109;BME280;18624;50.042;8.436;2024-03-29T00:37:11;98568.00;;;6.97;100.00
32109;BME280;18624;50.042;8.436;2024-03-29T00:39:37;98538.84;;;6.75;100.00
32109;BME280;18624;50.042;8.436;2024-03-29T00:42:03;98575.25;;;6.91;100.00
32109;BME280;18624;50.042;8.436;2024-03-29T00:44:32;98577.84;;;6.94;100.00
32109;BME280;18624;50.042;8.436;2024-03-29T00:46:57;98579.97;;;6.99;100.00
32109;BME280;18624;50.042;8.436;2024-03-29T00:49:23;98579.22;;;6.99;100.00
32109;BME280;18624;50.042;8.436;2024-03-29T00:51:48;98576.81;;;7.01;100.00
32109;BME280;18624;50.042;8.436;2024-03-29T00:54:14;98573.94;;;7.04;100.00
32109;BME280;18624;50.042;8.436;2024-03-29T00:56:39;98568.03;;;7.06;100.00
32109;BME280;18624;50.042;8.436;2024-03-29T00:59:05;98557.47;;;7.08;100.00
32109;BME280;18624;50.042;8.436;2024-03-29T01:01:31;98551.56;;;7.09;100.00
32109;BME280;18624;50.042;8.436;2024-03-29T01:03:57;98551.56;;;7.09;100.00
32109;BME280;18624;50.042;8.436;2024-03-29T01:06:23;98552.03;;;7.08;100.00
32109;BME280;18624;50.042;8.436;2024-03-29T01:08:49;98549.69;;;6.97;100.00
32109;BME280;18624;50.042;8.436;2024-03-29T01:11:14;98547.44;;;6.96;100.00
32109;BME280;18624;50.042;8.436;2024-03-29T01:13:40;98553.22;;;7.07;100.00
32109;BME280;18624;50.042;8.436;2024-03-29T01:16:05;98560.63;;;7.06;100.00
32109;BME280;18624;50.042;8.436;2024-03-29T01:18:31;98560.47;;;7.01;100.00
32109;BME280;18624;50.042;8.436;2024-03-29T01:20:58;98566.19;;;6.94;100.00
32109;BME280;18624;50.042;8.436;2024-03-29T01:23:23;98549.28;;;6.68;100.00
32109;BME280;18624;50.042;8.436;2024-03-29T01:25:49;98552.78;;;6.77;100.00
32109;BME280;18624;50.042;8.436;2024-03-29T01:28:14;98546.63;;;6.86;100.00
32109;BME280;18624;50.042;8.436;2024-03-29T01:30:40;98537.88;;;6.91;100.00
32109;BME280;18624;50.042;8.436;2024-03-29T01:33:05;98526.41;;;6.96;100.00
32109;BME280;18624;50.042;8.436;2024-03-29T01:35:31;98522.78;;;6.99;100.00
32109;BME280;18624;50.042;8.436;2024-03-29T01:37:56;98503.25;;;7.01;100.00
32109;BME280;18624;50.042;8.436;2024-03-29T01:40:22;98512.47;;;6.94;100.00
32109;BME280;18624;50.042;8.436;2024-03-29T01:42:47;98498.09;;;6.94;100.00
32109;BME280;18624;50.042;8.436;2024-03-29T01:45:13;98494.63;;;7.02;100.00
32109;BME280;18624;50.042;8.436;2024-03-29T01:47:38;98491.94;;;7.12;100.00
32109;BME280;18624;50.042;8.436;2024-03-29T01:50:05;98486.94;;;7.10;100.00
32109;BME280;18624;50.042;8.436;2024-03-29T01:52:31;98481.47;;;7.10;100.00
32109;BME280;18624;50.042;8.436;2024-03-29T01:54:57;98489.00;;;6.97;100.00
32109;BME280;18624;50.042;8.436;2024-03-29T01:57:22;98489.16;;;6.93;100.00
32109;BME280;18624;50.042;8.436;2024-03-29T01:59:48;98480.09;;;6.96;100.00
32109;BME280;18624;50.042;8.436;2024-03-29T02:02:14;98474.47;;;6.91;100.00
32109;BME280;18624;50.042;8.436;2024-03-29T02:04:40;98355.28;;;5.96;100.00
32109;BME280;18624;50.042;8.436;2024-03-29T02:07:06;98487.94;;;6.85;100.00
32109;BME280;18624;50.042;8.436;2024-03-29T02:09:32;98509.03;;;7.03;100.00
32109;BME280;18624;50.042;8.436;2024-03-29T02:11:58;98465.78;;;6.74;100.00
32109;BME280;18624;50.042;8.436;2024-03-29T02:14:24;98503.44;;;7.16;100.00
32109;BME280;18624;50.042;8.436;2024-03-29T02:16:49;98514.97;;;7.20;100.00
32109;BME280;18624;50.042;8.436;2024-03-29T02:19:15;98527.69;;;7.23;100.00
32109;BME280;18624;50.042;8.436;2024-03-29T02:21:43;98530.38;;;7.14;100.00
32109;BME280;18624;50.042;8.436;2024-03-29T02:24:12;98542.53;;;7.22;100.00
32109;BME280;18624;50.042;8.436;2024-03-29T02:26:38;98549.50;;;7.23;100.00
32109;BME280;18624;50.042;8.436;2024-03-29T02:29:08;98543.28;;;7.22;100.00
32109;BME280;18624;50.042;8.436;2024-03-29T02:31:34;98541.47;;;7.28;100.00
32109;BME280;18624;50.042;8.436;2024-03-29T02:34:00;98540.72;;;7.28;100.00
32109;BME280;18624;50.042;8.436;2024-03-29T02:36:25;98536.31;;;7.21;100.00
32109;BME280;18624;50.042;8.436;2024-03-29T02:38:51;98531.94;;;7.33;100.00
32109;BME280;18624;50.042;8.436;2024-03-29T02:41:17;98530.59;;;7.38;100.00
32109;BME280;18624;50.042;8.436;2024-03-29T02:43:42;98529.41;;;7.39;100.00
32109;BME280;18624;50.042;8.436;2024-03-29T02:46:08;98517.59;;;7.42;100.00
32109;BME280;18624;50.042;8.436;2024-03-29T02:48:33;98516.66;;;7.35;100.00
32109;BME280;18624;50.042;8.436;2024-03-29T02:50:59;98523.03;;;7.42;100.00
32109;BME280;18624;50.042;8.436;2024-03-29T02:53:24;98521.53;;;7.50;100.00
32109;BME280;18624;50.042;8.436;2024-03-29T02:55:50;98513.22;;;7.53;100.00
32109;BME280;18624;50.042;8.436;2024-03-29T02:58:15;98503.69;;;7.58;100.00
32109;BME280;18624;50.042;8.436;2024-03-29T03:00:41;98490.47;;;7.56;100.00
32109;BME280;18624;50.042;8.436;2024-03-29T03:03:06;98476.09;;;7.47;100.00
32109;BME280;18624;50.042;8.436;2024-03-29T03:05:32;98456.72;;;7.35;100.00
32109;BME280;18624;50.042;8.436;2024-03-29T03:07:58;98485.97;;;7.53;100.00
32109;BME280;18624;50.042;8.436;2024-03-29T03:10:46;98487.47;;;7.54;100.00
32109;BME280;18624;50.042;8.436;2024-03-29T03:13:28;98512.75;;;7.55;100.00
32109;BME280;18624;50.042;8.436;2024-03-29T03:15:54;98530.94;;;7.49;100.00
32109;BME280;18624;50.042;8.436;2024-03-29T03:18:20;98558.34;;;7.54;100.00
32109;BME280;18624;50.042;8.436;2024-03-29T03:20:53;98447.50;;;6.74;100.00
32109;BME280;18624;50.042;8.436;2024-03-29T03:23:19;98559.13;;;7.64;100.00
32109;BME280;18624;50.042;8.436;2024-03-29T03:25:46;98560.34;;;7.72;100.00
32109;BME280;18624;50.042;8.436;2024-03-29T03:28:18;98540.34;;;7.75;100.00
32109;BME280;18624;50.042;8.436;2024-03-29T03:30:44;98545.06;;;7.75;100.00
32109;BME280;18624;50.042;8.436;2024-03-29T03:33:09;98538.69;;;7.78;100.00
32109;BME280;18624;50.042;8.436;2024-03-29T03:35:35;98505.16;;;7.41;100.00
32109;BME280;18624;50.042;8.436;2024-03-29T03:38:00;98529.72;;;7.68;100.00
32109;BME280;18624;50.042;8.436;2024-03-29T03:40:26;98533.06;;;7.72;100.00
32109;BME280;18624;50.042;8.436;2024-03-29T03:42:51;98520.19;;;7.73;100.00
32109;BME280;18624;50.042;8.436;2024-03-29T03:45:17;98531.25;;;7.69;100.00
32109;BME280;18624;50.042;8.436;2024-03-29T03:47:42;98519.72;;;7.65;100.00
32109;BME280;18624;50.042;8.436;2024-03-29T03:50:08;98531.56;;;7.71;100.00
32109;BME280;18624;50.042;8.436;2024-03-29T03:52:34;98530.81;;;7.71;100.00
32109;BME280;18624;50.042;8.436;2024-03-29T03:54:59;98563.53;;;7.71;100.00
32109;BME280;18624;50.042;8.436;2024-03-29T03:57:25;98563.06;;;7.72;100.00
32109;BME280;18624;50.042;8.436;2024-03-29T03:59:50;98550.34;;;7.69;100.00
32109;BME280;18624;50.042;8.436;2024-03-29T04:02:16;98558.53;;;7.78;100.00
32109;BME280;18624;50.042;8.436;2024-03-29T04:04:42;98543.53;;;7.74;100.00
32109;BME280;18624;50.042;8.436;2024-03-29T04:07:07;98553.69;;;7.73;100.00
32109;BME280;18624;50.042;8.436;2024-03-29T04:09:33;98541.25;;;7.72;100.00
32109;BME280;18624;50.042;8.436;2024-03-29T04:11:58;98540.50;;;7.72;100.00
32109;BME280;18624;50.042;8.436;2024-03-29T04:14:24;98523.25;;;7.66;100.00
32109;BME280;18624;50.042;8.436;2024-03-29T04:16:49;98514.75;;;7.64;100.00
32109;BME280;18624;50.042;8.436;2024-03-29T04:19:15;98503.69;;;7.58;100.00
32109;BME280;18624;50.042;8.436;2024-03-29T04:21:41;98521.06;;;7.42;100.00
32109;BME280;18624;50.042;8.436;2024-03-29T04:24:06;98506.84;;;7.47;100.00
32109;BME280;18624;50.042;8.436;2024-03-29T04:26:35;98509.56;;;7.47;100.00
32109;BME280;18624;50.042;8.436;2024-03-29T04:29:01;98518.81;;;7.50;100.00
32109;BME280;18624;50.042;8.436;2024-03-29T04:31:26;98514.72;;;7.54;100.00
32109;BME280;18624;50.042;8.436;2024-03-29T04:33:52;98498.66;;;7.47;100.00
32109;BME280;18624;50.042;8.436;2024-03-29T04:36:17;98510.63;;;7.59;100.00
32109;BME280;18624;50.042;8.436;2024-03-29T04:38:43;98507.16;;;7.58;100.00
32109;BME280;18624;50.042;8.436;2024-03-29T04:41:09;98514.13;;;7.59;100.00
32109;BME280;18624;50.042;8.436;2024-03-29T04:43:35;98486.72;;;7.54;100.00
32109;BME280;18624;50.042;8.436;2024-03-29T04:46:10;98509.00;;;7.61;100.00
32109;BME280;18624;50.042;8.436;2024-03-29T04:48:40;98500.06;;;7.61;100.00
32109;BME280;18624;50.042;8.436;2024-03-29T04:51:07;98370.50;;;6.74;100.00
32109;BME280;18624;50.042;8.436;2024-03-29T04:53:35;98492.03;;;7.57;100.00
32109;BME280;18624;50.042;8.436;2024-03-29T04:56:01;98492.00;;;7.48;100.00
32109;BME280;18624;50.042;8.436;2024-03-29T04:58:27;98493.78;;;7.33;100.00
32109;BME280;18624;50.042;8.436;2024-03-29T05:00:54;98498.34;;;7.36;100.00
32109;BME280;18624;50.042;8.436;2024-03-29T05:03:20;98506.06;;;7.38;100.00
32109;BME280;18624;50.042;8.436;2024-03-29T05:05:46;98501.97;;;7.42;100.00
32109;BME280;18624;50.042;8.436;2024-03-29T05:08:13;98510.47;;;7.44;100.00
32109;BME280;18624;50.042;8.436;2024-03-29T05:10:42;98506.53;;;7.45;100.00
32109;BME280;18624;50.042;8.436;2024-03-29T05:13:08;98519.56;;;7.50;100.00
32109;BME280;18624;50.042;8.436;2024-03-29T05:15:34;98517.59;;;7.51;100.00
32109;BME280;18624;50.042;8.436;2024-03-29T05:17:59;98517.16;;;7.52;100.00
32109;BME280;18624;50.042;8.436;2024-03-29T05:20:25;98512.59;;;7.49;100.00
32109;BME280;18624;50.042;8.436;2024-03-29T05:22:51;98515.34;;;7.49;100.00
32109;BME280;18624;50.042;8.436;2024-03-29T05:25:16;98524.72;;;7.48;100.00
32109;BME280;18624;50.042;8.436;2024-03-29T05:27:42;98513.06;;;7.48;100.00
32109;BME280;18624;50.042;8.436;2024-03-29T05:30:07;98512.13;;;7.42;100.00
32109;BME280;18624;50.042;8.436;2024-03-29T05:32:35;98526.38;;;7.46;100.00
32109;BME280;18624;50.042;8.436;2024-03-29T05:35:01;98526.50;;;7.42;100.00
32109;BME280;18624;50.042;8.436;2024-03-29T05:37:26;98520.63;;;7.44;100.00
32109;BME280;18624;50.042;8.436;2024-03-29T05:39:53;98502.44;;;7.31;100.00
32109;BME280;18624;50.042;8.436;2024-03-29T05:42:34;98531.97;;;7.42;100.00
32109;BME280;18624;50.042;8.436;2024-03-29T05:45:05;98527.88;;;7.38;100.00
32109;BME280;18624;50.042;8.436;2024-03-29T05:47:31;98526.69;;;7.39;100.00
32109;BME280;18624;50.042;8.436;2024-03-29T05:49:56;98534.06;;;7.38;100.00
32109;BME280;18624;50.042;8.436;2024-03-29T05:52:22;98546.06;;;7.41;100.00
32109;BME280;18624;50.042;8.436;2024-03-29T05:54:48;98540.44;;;7.35;100.00
32109;BME280;18624;50.042;8.436;2024-03-29T05:57:15;98551.03;;;7.42;100.00
32109;BME280;18624;50.042;8.436;2024-03-29T05:59:41;98552.59;;;7.43;100.00
32109;BME280;18624;50.042;8.436;2024-03-29T06:02:06;98559.53;;;7.44;100.00
32109;BME280;18624;50.042;8.436;2024-03-29T06:04:32;98556.34;;;7.46;100.00
32109;BME280;18624;50.042;8.436;2024-03-29T06:07:02;98545.47;;;7.46;100.00
32109;BME280;18624;50.042;8.436;2024-03-29T06:09:28;98555.91;;;7.47;100.00
32109;BME280;18624;50.042;8.436;2024-03-29T06:11:57;98569.84;;;7.49;100.00
32109;BME280;18624;50.042;8.436;2024-03-29T06:14:23;98573.63;;;7.52;100.00
32109;BME280;18624;50.042;8.436;2024-03-29T06:17:08;98570.16;;;7.51;100.00
32109;BME280;18624;50.042;8.436;2024-03-29T06:19:52;98567.41;;;7.51;100.00
32109;BME280;18624;50.042;8.436;2024-03-29T06:22:22;98582.44;;;7.56;100.00
32109;BME280;18624;50.042;8.436;2024-03-29T06:24:49;98576.06;;;7.50;100.00
32109;BME280;18624;50.042;8.436;2024-03-29T06:27:20;98572.75;;;7.55;100.00
32109;BME280;18624;50.042;8.436;2024-03-29T06:29:49;98582.44;;;7.56;100.00
32109;BME280;18624;50.042;8.436;2024-03-29T06:32:15;98578.94;;;7.55;100.00
32109;BME280;18624;50.042;8.436;2024-03-29T06:34:46;98574.41;;;7.52;100.00
32109;BME280;18624;50.042;8.436;2024-03-29T06:37:12;98567.00;;;7.53;100.00
32109;BME280;18624;50.042;8.436;2024-03-29T06:39:38;98567.75;;;7.53;100.00
32109;BME280;18624;50.042;8.436;2024-03-29T06:42:04;98578.94;;;7.55;100.00
32109;BME280;18624;50.042;8.436;2024-03-29T06:44:32;98572.59;;;7.58;100.00
32109;BME280;18624;50.042;8.436;2024-03-29T06:46:58;98574.88;;;7.60;100.00
32109;BME280;18624;50.042;8.436;2024-03-29T06:49:23;98577.16;;;7.61;100.00
32109;BME280;18624;50.042;8.436;2024-03-29T06:51:49;98573.97;;;7.63;100.00
32109;BME280;18624;50.042;8.436;2024-03-29T06:54:15;98569.28;;;7.64;100.00
32109;BME280;18624;50.042;8.436;2024-03-29T06:56:41;98571.53;;;7.65;100.00
32109;BME280;18624;50.042;8.436;2024-03-29T06:59:07;98566.88;;;7.66;100.00
32109;BME280;18624;50.042;8.436;2024-03-29T07:01:33;98575.81;;;7.66;100.00
32109;BME280;18624;50.042;8.436;2024-03-29T07:03:59;98570.19;;;7.70;100.00
32109;BME280;18624;50.042;8.436;2024-03-29T07:06:24;98572.00;;;7.73;100.00
32109;BME280;18624;50.042;8.436;2024-03-29T07:08:50;98561.72;;;7.68;100.00
32109;BME280;18624;50.042;8.436;2024-03-29T07:11:15;98566.09;;;7.74;100.00
32109;BME280;18624;50.042;8.436;2024-03-29T07:13:41;98579.28;;;7.76;100.00
32109;BME280;18624;50.042;8.436;2024-03-29T07:16:06;98566.72;;;7.78;100.00
32109;BME280;18624;50.042;8.436;2024-03-29T07:18:32;98571.72;;;7.80;100.00
32109;BME280;18624;50.042;8.436;2024-03-29T07:20:58;98560.22;;;7.76;100.00
32109;BME280;18624;50.042;8.436;2024-03-29T07:23:23;98554.59;;;7.70;100.00
32109;BME280;18624;50.042;8.436;2024-03-29T07:26:02;98570.03;;;7.82;100.00
32109;BME280;18624;50.042;8.436;2024-03-29T07:28:29;98575.81;;;7.84;100.00
32109;BME280;18624;50.042;8.436;2024-03-29T07:30:55;98570.97;;;7.89;100.00
32109;BME280;18624;50.042;8.436;2024-03-29T07:33:22;98443.78;;;6.99;100.00
32109;BME280;18624;50.042;8.436;2024-03-29T07:35:52;98570.81;;;7.92;100.00
32109;BME280;18624;50.042;8.436;2024-03-29T07:38:17;98562.63;;;7.92;100.00
32109;BME280;18624;50.042;8.436;2024-03-29T07:40:46;98570.22;;;7.88;100.00
32109;BME280;18624;50.042;8.436;2024-03-29T07:43:12;98456.06;;;7.13;100.00
32109;BME280;18624;50.042;8.436;2024-03-29T07:45:43;98563.84;;;7.82;100.00
32109;BME280;18624;50.042;8.436;2024-03-29T07:48:13;98547.00;;;7.74;100.00
32109;BME280;18624;50.042;8.436;2024-03-29T07:50:42;98538.06;;;7.74;100.00
32109;BME280;18624;50.042;8.436;2024-03-29T07:53:08;98572.63;;;7.95;100.00
32109;BME280;18624;50.042;8.436;2024-03-29T07:55:35;98554.28;;;7.96;100.00
32109;BME280;18624;50.042;8.436;2024-03-29T07:58:01;98578.41;;;7.97;100.00
32109;BME280;18624;50.042;8.436;2024-03-29T08:00:27;98566.13;;;7.93;100.00
32109;BME280;18624;50.042;8.436;2024-03-29T08:02:52;98540.66;;;7.68;100.00
32109;BME280;18624;50.042;8.436;2024-03-29T08:05:20;98563.53;;;7.80;100.00
32109;BME280;18624;50.042;8.436;2024-03-29T08:07:46;98574.91;;;7.87;100.00
32109;BME280;18624;50.042;8.436;2024-03-29T08:10:11;98562.34;;;7.90;100.00
32109;BME280;18624;50.042;8.436;2024-03-29T08:12:37;98579.31;;;7.94;100.00
32109;BME280;18624;50.042;8.436;2024-03-29T08:15:04;98506.84;;;7.47;100.00
32109;BME280;18624;50.042;8.436;2024-03-29T08:17:29;98575.69;;;7.97;100.00
32109;BME280;18624;50.042;8.436;2024-03-29T08:19:55;98575.38;;;7.95;100.00
32109;BME280;18624;50.042;8.436;2024-03-29T08:22:21;98583.25;;;7.93;100.00
32109;BME280;18624;50.042;8.436;2024-03-29T08:24:46;98582.03;;;7.94;100.00
32109;BME280;18624;50.042;8.436;2024-03-29T08:27:12;98589.28;;;7.79;100.00
32109;BME280;18624;50.042;8.436;2024-03-29T08:29:37;98593.38;;;7.74;100.00
32109;BME280;18624;50.042;8.436;2024-03-29T08:32:03;98595.19;;;7.77;100.00
32109;BME280;18624;50.042;8.436;2024-03-29T08:34:29;98602.34;;;7.84;100.00
32109;BME280;18624;50.042;8.436;2024-03-29T08:37:03;98611.56;;;7.86;100.00
32109;BME280;18624;50.042;8.436;2024-03-29T08:39:31;98603.72;;;7.89;100.00
32109;BME280;18624;50.042;8.436;2024-03-29T08:42:00;98611.91;;;7.89;100.00
32109;BME280;18624;50.042;8.436;2024-03-29T08:44:30;98618.72;;;7.93;100.00
32109;BME280;18624;50.042;8.436;2024-03-29T08:46:56;98623.56;;;7.98;100.00
32109;BME280;18624;50.042;8.436;2024-03-29T08:49:24;98621.91;;;8.01;100.00
32109;BME280;18624;50.042;8.436;2024-03-29T08:51:50;98626.16;;;8.02;100.00
32109;BME280;18624;50.042;8.436;2024-03-29T08:54:15;98632.66;;;8.04;100.00
32109;BME280;18624;50.042;8.436;2024-03-29T08:56:41;98631.78;;;8.07;100.00
32109;BME280;18624;50.042;8.436;2024-03-29T08:59:06;98638.75;;;8.08;100.00
32109;BME280;18624;50.042;8.436;2024-03-29T09:01:41;98644.06;;;8.12;100.00
32109;BME280;18624;50.042;8.436;2024-03-29T09:04:07;98643.28;;;8.11;100.00
32109;BME280;18624;50.042;8.436;2024-03-29T09:06:39;98654.50;;;8.13;100.00
32109;BME280;18624;50.042;8.436;2024-03-29T09:09:05;98667.25;;;8.17;100.00
32109;BME280;18624;50.042;8.436;2024-03-29T09:11:32;98671.34;;;8.21;100.00
32109;BME280;18624;50.042;8.436;2024-03-29T09:13:58;98677.28;;;8.20;100.00
32109;BME280;18624;50.042;8.436;2024-03-29T09:16:27;98683.78;;;8.22;100.00
32109;BME280;18624;50.042;8.436;2024-03-29T09:18:55;98689.69;;;8.21;100.00
32109;BME280;18624;50.042;8.436;2024-03-29T09:21:21;98707.44;;;8.16;100.00
32109;BME280;18624;50.042;8.436;2024-03-29T09:23:47;98685.28;;;8.14;100.00
32109;BME280;18624;50.042;8.436;2024-03-29T09:26:14;98681.78;;;8.13;100.00
32109;BME280;18624;50.042;8.436;2024-03-29T09:28:40;98680.88;;;8.07;100.00
32109;BME280;18624;50.042;8.436;2024-03-29T09:31:06;98693.03;;;8.06;100.00
32109;BME280;18624;50.042;8.436;2024-03-29T09:33:32;98678.44;;;8.09;100.00
32109;BME280;18624;50.042;8.436;2024-03-29T09:35:58;98691.97;;;8.22;100.00
32109;BME280;18624;50.042;8.436;2024-03-29T09:38:25;98584.53;;;7.52;100.00
32109;BME280;18624;50.042;8.436;2024-03-29T09:41:00;98693.34;;;8.27;100.00
32109;BME280;18624;50.042;8.436;2024-03-29T09:43:29;98678.16;;;8.17;100.00
32109;BME280;18624;50.042;8.436;2024-03-29T09:45:56;98710.47;;;8.27;100.00
32109;BME280;18624;50.042;8.436;2024-03-29T09:48:22;98700.31;;;8.28;100.00
32109;BME280;18624;50.042;8.436;2024-03-29T09:50:49;98694.56;;;8.26;100.00
32109;BME280;18624;50.042;8.436;2024-03-29T09:53:18;98707.75;;;8.27;100.00
32109;BME280;18624;50.042;8.436;2024-03-29T09:55:45;98554.66;;;7.21;100.00
32109;BME280;18624;50.042;8.436;2024-03-29T09:58:11;98723.53;;;8.32;100.00
32109;BME280;18624;50.042;8.436;2024-03-29T10:00:37;98717.03;;;8.39;100.00
32109;BME280;18624;50.042;8.436;2024-03-29T10:03:03;98713.41;;;8.42;100.00
32109;BME280;18624;50.042;8.436;2024-03-29T10:05:29;98723.28;;;8.49;100.00
32109;BME280;18624;50.042;8.436;2024-03-29T10:07:55;98723.88;;;8.53;100.00
32109;BME280;18624;50.042;8.436;2024-03-29T10:10:21;98720.69;;;8.54;100.00
32109;BME280;18624;50.042;8.436;2024-03-29T10:12:47;98721.44;;;8.55;100.00
32109;BME280;18624;50.042;8.436;2024-03-29T10:15:13;98733.13;;;8.55;100.00
32109;BME280;18624;50.042;8.436;2024-03-29T10:17:49;98745.13;;;8.58;100.00
32109;BME280;18624;50.042;8.436;2024-03-29T10:20:16;98738.44;;;8.59;100.00
32109;BME280;18624;50.042;8.436;2024-03-29T10:22:43;98748.16;;;8.60;100.00
32109;BME280;18624;50.042;8.436;2024-03-29T10:25:10;98704.88;;;8.31;100.00
32109;BME280;18624;50.042;8.436;2024-03-29T10:27:36;98740.88;;;8.57;100.00
32109;BME280;18624;50.042;8.436;2024-03-29T10:30:02;98721.63;;;8.60;100.00
32109;BME280;18624;50.042;8.436;2024-03-29T10:32:29;98720.69;;;8.63;100.00
32109;BME280;18624;50.042;8.436;2024-03-29T10:34:55;98718.56;;;8.58;100.00
32109;BME280;18624;50.042;8.436;2024-03-29T10:37:21;98735.09;;;8.73;100.00
32109;BME280;18624;50.042;8.436;2024-03-29T10:39:52;98730.25;;;8.68;100.00
32109;BME280;18624;50.042;8.436;2024-03-29T10:42:19;98724.03;;;8.68;100.00
32109;BME280;18624;50.042;8.436;2024-03-29T10:44:48;98728.75;;;8.67;100.00
32109;BME280;18624;50.042;8.436;2024-03-29T10:47:18;98714.19;;;8.70;100.00
32109;BME280;18624;50.042;8.436;2024-03-29T10:49:49;98714.94;;;8.71;100.00
32109;BME280;18624;50.042;8.436;2024-03-29T10:52:16;98716.31;;;8.75;100.00
32109;BME280;18624;50.042;8.436;2024-03-29T10:54:44;98712.81;;;8.75;100.00
32109;BME280;18624;50.042;8.436;2024-03-29T10:57:16;98707.19;;;8.78;100.00
32109;BME280;18624;50.042;8.436;2024-03-29T10:59:53;98701.88;;;8.84;100.00
32109;BME280;18624;50.042;8.436;2024-03-29T11:02:34;98691.41;;;8.92;100.00
32109;BME280;18624;50.042;8.436;2024-03-29T11:05:02;98700.66;;;8.94;100.00
32109;BME280;18624;50.042;8.436;2024-03-29T11:07:34;98700.97;;;8.96;100.00
32109;BME280;18624;50.042;8.436;2024-03-29T11:10:02;98681.97;;;8.93;100.00
32109;BME280;18624;50.042;8.436;2024-03-29T11:12:41;98688.66;;;9.01;100.00
32109;BME280;18624;50.042;8.436;2024-03-29T11:15:10;98676.78;;;9.04;100.00
32109;BME280;18624;50.042;8.436;2024-03-29T11:17:39;98677.69;;;9.10;100.00
32109;BME280;18624;50.042;8.436;2024-03-29T11:20:05;98668.16;;;9.05;100.00
32109;BME280;18624;50.042;8.436;2024-03-29T11:22:32;98680.09;;;9.17;100.00
32109;BME280;18624;50.042;8.436;2024-03-29T11:25:00;98685.69;;;9.23;100.00
32109;BME280;18624;50.042;8.436;2024-03-29T11:27:26;98568.53;;;8.46;100.00
32109;BME280;18624;50.042;8.436;2024-03-29T11:29:52;98683.56;;;9.27;100.00
32109;BME280;18624;50.042;8.436;2024-03-29T11:32:37;98688.41;;;9.32;100.00
32109;BME280;18624;50.042;8.436;2024-03-29T11:35:14;98699.66;;;9.34;100.00
32109;BME280;18624;50.042;8.436;2024-03-29T11:37:41;98716.97;;;9.31;100.00
32109;BME280;18624;50.042;8.436;2024-03-29T11:40:10;98722.44;;;9.31;100.00
32109;BME280;18624;50.042;8.436;2024-03-29T11:42:46;98733.69;;;9.33;100.00
32109;BME280;18624;50.042;8.436;2024-03-29T11:45:12;98626.47;;;8.50;100.00
32109;BME280;18624;50.042;8.436;2024-03-29T11:47:39;98738.53;;;9.38;100.00
32109;BME280;18624;50.042;8.436;2024-03-29T11:50:06;98742.50;;;9.37;100.00
32109;BME280;18624;50.042;8.436;2024-03-29T11:52:33;98740.66;;;9.34;100.00
32109;BME280;18624;50.042;8.436;2024-03-29T11:54:59;98738.69;;;9.34;100.00
32109;BME280;18624;50.042;8.436;2024-03-29T11:57:25;98734.28;;;9.37;100.00
32109;BME280;18624;50.042;8.436;2024-03-29T11:59:50;98729.84;;;9.39;100.00
32109;BME280;18624;50.042;8.436;2024-03-29T12:02:16;98733.94;;;9.44;100.00
32109;BME280;18624;50.042;8.436;2024-03-29T12:04:42;98727.56;;;9.47;100.00
32109;BME280;18624;50.042;8.436;2024-03-29T12:07:08;98730.59;;;9.49;100.00
32109;BME280;18624;50.042;8.436;2024-03-29T12:09:33;98743.19;;;9.56;100.00
32109;BME280;18624;50.042;8.436;2024-03-29T12:11:59;98746.97;;;9.58;100.00
32109;BME280;18624;50.042;8.436;2024-03-29T12:14:33;98749.06;;;9.63;100.00
32109;BME280;18624;50.042;8.436;2024-03-29T12:17:01;98731.63;;;9.61;100.00
32109;BME280;18624;50.042;8.436;2024-03-29T12:19:27;98744.38;;;9.64;100.00
32109;BME280;18624;50.042;8.436;2024-03-29T12:21:53;98739.84;;;9.61;100.00
32109;BME280;18624;50.042;8.436;2024-03-29T12:24:20;98746.06;;;9.61;100.00
32109;BME280;18624;50.042;8.436;2024-03-29T12:26:48;98740.44;;;9.65;100.00
32109;BME280;18624;50.042;8.436;2024-03-29T12:29:15;98611.41;;;8.82;100.00
32109;BME280;18624;50.042;8.436;2024-03-29T12:31:41;98695.38;;;9.42;100.00
32109;BME280;18624;50.042;8.436;2024-03-29T12:34:07;98732.34;;;9.71;100.00
32109;BME280;18624;50.042;8.436;2024-03-29T12:36:33;98741.91;;;9.75;100.00
32109;BME280;18624;50.042;8.436;2024-03-29T12:38:59;98729.91;;;9.73;100.00
32109;BME280;18624;50.042;8.436;2024-03-29T12:41:31;98733.69;;;9.75;100.00
32109;BME280;18624;50.042;8.436;2024-03-29T12:43:58;98747.69;;;9.77;100.00
32109;BME280;18624;50.042;8.436;2024-03-29T12:46:25;98767.59;;;9.78;100.00
32109;BME280;18624;50.042;8.436;2024-03-29T12:49:01;98769.84;;;9.79;100.00
32109;BME280;18624;50.042;8.436;2024-03-29T12:51:27;98776.56;;;9.78;100.00
32109;BME280;18624;50.042;8.436;2024-03-29T12:53:53;98775.31;;;9.79;100.00
32109;BME280;18624;50.042;8.436;2024-03-29T12:56:18;98774.84;;;9.81;100.00
32109;BME280;18624;50.042;8.436;2024-03-29T12:58:44;98781.41;;;9.83;100.00